sensor_id;sensor_type;location;lat;lon;timestamp;P1;durP1;ratioP1;P2;durP2;ratioP2
74227;SDS011;62587;52.352;5.006;2022-09-09T00:04:40;2.53;;;1.30;;
74227;SDS011;62587;52.352;5.006;2022-09-09T00:07:18;3.47;;;1.60;;
74227;SDS011;62587;52.352;5.006;2022-09-09T00:12:26;2.40;;;1.15;;
74227;SDS011;62587;52.352;5.006;2022-09-09T00:15:02;3.10;;;1.40;;
74227;SDS011;62587;52.352;5.006;2022-09-09T00:17:59;2.33;;;1.23;;
74227;SDS011;62587;52.352;5.006;2022-09-09T00:23:02;2.97;;;1.40;;
74227;SDS011;62587;52.352;5.006;2022-09-09T00:26:23;2.92;;;1.25;;
74227;SDS011;62587;52.352;5.006;2022-09-09T00:28:27;2.20;;;1.30;;
74227;SDS011;62587;52.352;5.006;2022-09-09T00:30:59;2.17;;;1.30;;
74227;SDS011;62587;52.352;5.006;2022-09-09T00:33:33;2.78;;;1.30;;
74227;SDS011;62587;52.352;5.006;2022-09-09T00:36:00;2.92;;;1.40;;
74227;SDS011;62587;52.352;5.006;2022-09-09T00:41:01;2.30;;;1.30;;
74227;SDS011;62587;52.352;5.006;2022-09-09T00:43:38;2.50;;;1.13;;
74227;SDS011;62587;52.352;5.006;2022-09-09T00:46:17;1.65;;;1.10;;
74227;SDS011;62587;52.352;5.006;2022-09-09T00:48:51;1.85;;;1.08;;
74227;SDS011;62587;52.352;5.006;2022-09-09T00:51:30;2.78;;;1.40;;
74227;SDS011;62587;52.352;5.006;2022-09-09T00:54:21;2.72;;;1.80;;
74227;SDS011;62587;52.352;5.006;2022-09-09T01:00:14;1.65;;;1.00;;
74227;SDS011;62587;52.352;5.006;2022-09-09T01:08:18;2.47;;;1.20;;
74227;SDS011;62587;52.352;5.006;2022-09-09T01:11:01;2.30;;;1.30;;
74227;SDS011;62587;52.352;5.006;2022-09-09T01:13:31;1.80;;;1.10;;
74227;SDS011;62587;52.352;5.006;2022-09-09T01:16:00;2.20;;;1.20;;
74227;SDS011;62587;52.352;5.006;2022-09-09T01:18:29;2.08;;;1.13;;
74227;SDS011;62587;52.352;5.006;2022-09-09T01:24:16;3.13;;;1.40;;
74227;SDS011;62587;52.352;5.006;2022-09-09T01:26:56;1.83;;;1.17;;
74227;SDS011;62587;52.352;5.006;2022-09-09T01:29:26;3.70;;;1.40;;
74227;SDS011;62587;52.352;5.006;2022-09-09T01:31:53;2.28;;;1.40;;
74227;SDS011;62587;52.352;5.006;2022-09-09T01:34:21;2.08;;;1.25;;
74227;SDS011;62587;52.352;5.006;2022-09-09T01:39:15;2.58;;;1.10;;
74227;SDS011;62587;52.352;5.006;2022-09-09T01:41:40;2.80;;;1.15;;
74227;SDS011;62587;52.352;5.006;2022-09-09T01:44:06;2.45;;;1.38;;
74227;SDS011;62587;52.352;5.006;2022-09-09T01:46:32;2.03;;;1.30;;
74227;SDS011;62587;52.352;5.006;2022-09-09T01:48:58;2.72;;;1.02;;
74227;SDS011;62587;52.352;5.006;2022-09-09T01:51:25;2.00;;;1.10;;
74227;SDS011;62587;52.352;5.006;2022-09-09T01:53:51;1.75;;;1.10;;
74227;SDS011;62587;52.352;5.006;2022-09-09T01:56:26;1.90;;;0.90;;
74227;SDS011;62587;52.352;5.006;2022-09-09T02:01:50;2.85;;;1.08;;
74227;SDS011;62587;52.352;5.006;2022-09-09T02:04:45;2.53;;;0.98;;
74227;SDS011;62587;52.352;5.006;2022-09-09T02:07:19;1.17;;;0.85;;
74227;SDS011;62587;52.352;5.006;2022-09-09T02:09:58;1.67;;;0.98;;
74227;SDS011;62587;52.352;5.006;2022-09-09T02:12:30;2.22;;;1.10;;
74227;SDS011;62587;52.352;5.006;2022-09-09T02:14:59;2.35;;;0.90;;
74227;SDS011;62587;52.352;5.006;2022-09-09T02:17:34;2.88;;;1.00;;
74227;SDS011;62587;52.352;5.006;2022-09-09T02:20:07;2.10;;;0.93;;
74227;SDS011;62587;52.352;5.006;2022-09-09T02:22:37;2.47;;;0.90;;
74227;SDS011;62587;52.352;5.006;2022-09-09T02:25:05;1.52;;;0.77;;
74227;SDS011;62587;52.352;5.006;2022-09-09T02:27:33;2.78;;;0.88;;
74227;SDS011;62587;52.352;5.006;2022-09-09T02:29:59;1.52;;;0.88;;
74227;SDS011;62587;52.352;5.006;2022-09-09T02:32:27;1.35;;;0.80;;
74227;SDS011;62587;52.352;5.006;2022-09-09T02:34:57;2.53;;;0.93;;
74227;SDS011;62587;52.352;5.006;2022-09-09T02:37:27;1.65;;;0.80;;
74227;SDS011;62587;52.352;5.006;2022-09-09T02:39:56;2.22;;;1.10;;
74227;SDS011;62587;52.352;5.006;2022-09-09T02:42:22;1.42;;;0.80;;
74227;SDS011;62587;52.352;5.006;2022-09-09T02:44:48;1.10;;;0.80;;
74227;SDS011;62587;52.352;5.006;2022-09-09T02:47:25;1.52;;;0.90;;
74227;SDS011;62587;52.352;5.006;2022-09-09T02:50:02;1.52;;;0.80;;
74227;SDS011;62587;52.352;5.006;2022-09-09T02:52:38;2.03;;;0.88;;
74227;SDS011;62587;52.352;5.006;2022-09-09T02:57:49;1.10;;;0.68;;
74227;SDS011;62587;52.352;5.006;2022-09-09T03:00:22;1.20;;;0.70;;
74227;SDS011;62587;52.352;5.006;2022-09-09T03:02:49;2.83;;;1.13;;
74227;SDS011;62587;52.352;5.006;2022-09-09T03:05:15;1.85;;;0.60;;
74227;SDS011;62587;52.352;5.006;2022-09-09T03:07:40;1.25;;;0.70;;
74227;SDS011;62587;52.352;5.006;2022-09-09T03:10:06;1.58;;;0.80;;
74227;SDS011;62587;52.352;5.006;2022-09-09T03:12:33;1.63;;;0.93;;
74227;SDS011;62587;52.352;5.006;2022-09-09T03:14:58;1.58;;;0.75;;
74227;SDS011;62587;52.352;5.006;2022-09-09T03:17:23;1.37;;;0.70;;
74227;SDS011;62587;52.352;5.006;2022-09-09T03:19:49;2.20;;;0.70;;
74227;SDS011;62587;52.352;5.006;2022-09-09T03:22:17;1.40;;;0.70;;
74227;SDS011;62587;52.352;5.006;2022-09-09T03:24:42;1.73;;;0.70;;
74227;SDS011;62587;52.352;5.006;2022-09-09T03:27:08;1.95;;;0.70;;
74227;SDS011;62587;52.352;5.006;2022-09-09T03:29:33;1.53;;;0.73;;
74227;SDS011;62587;52.352;5.006;2022-09-09T03:31:59;1.17;;;0.70;;
74227;SDS011;62587;52.352;5.006;2022-09-09T03:34:24;1.80;;;1.05;;
74227;SDS011;62587;52.352;5.006;2022-09-09T03:36:49;1.87;;;0.90;;
74227;SDS011;62587;52.352;5.006;2022-09-09T03:39:15;1.35;;;0.70;;
74227;SDS011;62587;52.352;5.006;2022-09-09T03:41:40;2.80;;;0.83;;
74227;SDS011;62587;52.352;5.006;2022-09-09T03:44:06;1.30;;;0.90;;
74227;SDS011;62587;52.352;5.006;2022-09-09T03:46:31;1.40;;;0.70;;
74227;SDS011;62587;52.352;5.006;2022-09-09T03:48:57;1.20;;;0.70;;
74227;SDS011;62587;52.352;5.006;2022-09-09T03:51:22;1.52;;;0.80;;
74227;SDS011;62587;52.352;5.006;2022-09-09T03:53:47;2.13;;;0.98;;
74227;SDS011;62587;52.352;5.006;2022-09-09T03:56:13;1.98;;;0.80;;
74227;SDS011;62587;52.352;5.006;2022-09-09T03:58:38;2.33;;;0.90;;
74227;SDS011;62587;52.352;5.006;2022-09-09T04:03:39;1.33;;;0.73;;
74227;SDS011;62587;52.352;5.006;2022-09-09T04:06:05;1.30;;;0.70;;
74227;SDS011;62587;52.352;5.006;2022-09-09T04:08:32;1.73;;;0.90;;
74227;SDS011;62587;52.352;5.006;2022-09-09T04:10:59;3.20;;;0.90;;
74227;SDS011;62587;52.352;5.006;2022-09-09T04:13:30;1.27;;;0.82;;
74227;SDS011;62587;52.352;5.006;2022-09-09T04:15:56;1.23;;;0.70;;
74227;SDS011;62587;52.352;5.006;2022-09-09T04:18:23;1.25;;;0.60;;
74227;SDS011;62587;52.352;5.006;2022-09-09T04:20:50;1.77;;;0.70;;
74227;SDS011;62587;52.352;5.006;2022-09-09T04:23:17;1.23;;;0.50;;
74227;SDS011;62587;52.352;5.006;2022-09-09T04:25:46;1.13;;;0.50;;
74227;SDS011;62587;52.352;5.006;2022-09-09T04:28:14;2.15;;;0.85;;
74227;SDS011;62587;52.352;5.006;2022-09-09T04:30:40;1.75;;;0.65;;
74227;SDS011;62587;52.352;5.006;2022-09-09T04:33:06;1.42;;;0.70;;
74227;SDS011;62587;52.352;5.006;2022-09-09T04:35:33;1.65;;;0.80;;
74227;SDS011;62587;52.352;5.006;2022-09-09T04:37:59;2.00;;;0.60;;
74227;SDS011;62587;52.352;5.006;2022-09-09T04:40:24;1.37;;;0.60;;
74227;SDS011;62587;52.352;5.006;2022-09-09T04:42:50;0.90;;;0.50;;
74227;SDS011;62587;52.352;5.006;2022-09-09T04:45:15;1.60;;;0.82;;
74227;SDS011;62587;52.352;5.006;2022-09-09T04:47:41;1.02;;;0.63;;
74227;SDS011;62587;52.352;5.006;2022-09-09T04:50:07;2.30;;;0.65;;
74227;SDS011;62587;52.352;5.006;2022-09-09T04:52:34;1.13;;;0.73;;
74227;SDS011;62587;52.352;5.006;2022-09-09T04:55:00;2.58;;;0.88;;
74227;SDS011;62587;52.352;5.006;2022-09-09T04:57:26;1.13;;;0.70;;
74227;SDS011;62587;52.352;5.006;2022-09-09T04:59:51;1.77;;;0.52;;
74227;SDS011;62587;52.352;5.006;2022-09-09T05:02:16;1.25;;;0.57;;
74227;SDS011;62587;52.352;5.006;2022-09-09T05:04:42;1.40;;;0.70;;
74227;SDS011;62587;52.352;5.006;2022-09-09T05:07:07;0.88;;;0.50;;
74227;SDS011;62587;52.352;5.006;2022-09-09T05:09:33;1.40;;;0.70;;
74227;SDS011;62587;52.352;5.006;2022-09-09T05:11:58;1.00;;;0.50;;
74227;SDS011;62587;52.352;5.006;2022-09-09T05:14:24;1.83;;;0.60;;
74227;SDS011;62587;52.352;5.006;2022-09-09T05:16:49;1.80;;;0.70;;
74227;SDS011;62587;52.352;5.006;2022-09-09T05:19:15;1.25;;;0.68;;
74227;SDS011;62587;52.352;5.006;2022-09-09T05:21:40;1.48;;;0.50;;
74227;SDS011;62587;52.352;5.006;2022-09-09T05:24:06;1.35;;;0.65;;
74227;SDS011;62587;52.352;5.006;2022-09-09T05:26:32;1.25;;;0.52;;
74227;SDS011;62587;52.352;5.006;2022-09-09T05:28:57;2.05;;;0.85;;
74227;SDS011;62587;52.352;5.006;2022-09-09T05:31:24;1.75;;;0.60;;
74227;SDS011;62587;52.352;5.006;2022-09-09T05:33:52;1.92;;;0.70;;
74227;SDS011;62587;52.352;5.006;2022-09-09T05:36:19;1.40;;;0.55;;
74227;SDS011;62587;52.352;5.006;2022-09-09T05:38:45;1.38;;;0.60;;
74227;SDS011;62587;52.352;5.006;2022-09-09T05:41:11;1.20;;;0.60;;
74227;SDS011;62587;52.352;5.006;2022-09-09T05:43:40;1.10;;;0.60;;
74227;SDS011;62587;52.352;5.006;2022-09-09T05:46:08;2.47;;;0.73;;
74227;SDS011;62587;52.352;5.006;2022-09-09T05:48:36;1.00;;;0.50;;
74227;SDS011;62587;52.352;5.006;2022-09-09T05:51:03;1.55;;;0.55;;
74227;SDS011;62587;52.352;5.006;2022-09-09T05:53:29;1.75;;;0.52;;
74227;SDS011;62587;52.352;5.006;2022-09-09T05:56:00;2.25;;;0.57;;
74227;SDS011;62587;52.352;5.006;2022-09-09T05:58:28;2.20;;;0.70;;
74227;SDS011;62587;52.352;5.006;2022-09-09T06:01:01;1.63;;;0.68;;
74227;SDS011;62587;52.352;5.006;2022-09-09T06:03:28;1.50;;;0.68;;
74227;SDS011;62587;52.352;5.006;2022-09-09T06:05:57;1.63;;;0.70;;
74227;SDS011;62587;52.352;5.006;2022-09-09T06:08:23;1.15;;;0.60;;
74227;SDS011;62587;52.352;5.006;2022-09-09T06:10:49;2.92;;;0.75;;
74227;SDS011;62587;52.352;5.006;2022-09-09T06:13:14;1.45;;;0.57;;
74227;SDS011;62587;52.352;5.006;2022-09-09T06:15:39;1.97;;;0.60;;
74227;SDS011;62587;52.352;5.006;2022-09-09T06:18:14;1.23;;;0.50;;
74227;SDS011;62587;52.352;5.006;2022-09-09T06:20:42;1.67;;;0.60;;
74227;SDS011;62587;52.352;5.006;2022-09-09T06:23:08;1.55;;;0.60;;
74227;SDS011;62587;52.352;5.006;2022-09-09T06:25:33;2.70;;;0.63;;
74227;SDS011;62587;52.352;5.006;2022-09-09T06:27:59;1.73;;;0.73;;
74227;SDS011;62587;52.352;5.006;2022-09-09T06:30:24;5.25;;;0.80;;
74227;SDS011;62587;52.352;5.006;2022-09-09T06:32:50;1.42;;;0.65;;
74227;SDS011;62587;52.352;5.006;2022-09-09T06:35:16;1.20;;;0.63;;
74227;SDS011;62587;52.352;5.006;2022-09-09T06:37:44;1.50;;;0.50;;
74227;SDS011;62587;52.352;5.006;2022-09-09T06:40:10;1.55;;;0.70;;
74227;SDS011;62587;52.352;5.006;2022-09-09T06:42:36;1.30;;;0.80;;
74227;SDS011;62587;52.352;5.006;2022-09-09T06:45:01;1.50;;;0.80;;
74227;SDS011;62587;52.352;5.006;2022-09-09T06:47:27;1.05;;;0.60;;
74227;SDS011;62587;52.352;5.006;2022-09-09T06:49:53;2.25;;;0.55;;
74227;SDS011;62587;52.352;5.006;2022-09-09T06:52:18;1.95;;;0.70;;
74227;SDS011;62587;52.352;5.006;2022-09-09T06:54:44;2.15;;;0.63;;
74227;SDS011;62587;52.352;5.006;2022-09-09T06:57:10;2.83;;;0.90;;
74227;SDS011;62587;52.352;5.006;2022-09-09T06:59:35;1.13;;;0.50;;
74227;SDS011;62587;52.352;5.006;2022-09-09T07:02:01;2.85;;;0.70;;
74227;SDS011;62587;52.352;5.006;2022-09-09T07:04:26;1.83;;;0.70;;
74227;SDS011;62587;52.352;5.006;2022-09-09T07:06:52;1.30;;;0.70;;
74227;SDS011;62587;52.352;5.006;2022-09-09T07:09:17;1.58;;;0.80;;
74227;SDS011;62587;52.352;5.006;2022-09-09T07:11:44;2.70;;;0.90;;
74227;SDS011;62587;52.352;5.006;2022-09-09T07:14:13;2.28;;;1.02;;
74227;SDS011;62587;52.352;5.006;2022-09-09T07:16:43;1.38;;;0.70;;
74227;SDS011;62587;52.352;5.006;2022-09-09T07:19:10;1.38;;;0.70;;
74227;SDS011;62587;52.352;5.006;2022-09-09T07:21:36;2.20;;;0.70;;
74227;SDS011;62587;52.352;5.006;2022-09-09T07:24:01;2.17;;;0.77;;
74227;SDS011;62587;52.352;5.006;2022-09-09T07:26:28;6.70;;;1.48;;
74227;SDS011;62587;52.352;5.006;2022-09-09T07:28:55;5.40;;;1.65;;
74227;SDS011;62587;52.352;5.006;2022-09-09T07:31:23;9.05;;;2.03;;
74227;SDS011;62587;52.352;5.006;2022-09-09T07:33:53;9.52;;;2.10;;
74227;SDS011;62587;52.352;5.006;2022-09-09T07:38:49;10.15;;;2.28;;
74227;SDS011;62587;52.352;5.006;2022-09-09T07:41:23;7.15;;;2.33;;
74227;SDS011;62587;52.352;5.006;2022-09-09T07:43:53;8.73;;;2.30;;
74227;SDS011;62587;52.352;5.006;2022-09-09T07:46:22;6.72;;;2.15;;
74227;SDS011;62587;52.352;5.006;2022-09-09T07:48:51;6.20;;;2.13;;
74227;SDS011;62587;52.352;5.006;2022-09-09T07:51:24;8.20;;;1.90;;
74227;SDS011;62587;52.352;5.006;2022-09-09T07:53:54;7.15;;;2.13;;
74227;SDS011;62587;52.352;5.006;2022-09-09T07:56:23;8.25;;;1.90;;
74227;SDS011;62587;52.352;5.006;2022-09-09T07:58:50;7.63;;;1.80;;
74227;SDS011;62587;52.352;5.006;2022-09-09T08:01:18;6.53;;;1.83;;
74227;SDS011;62587;52.352;5.006;2022-09-09T08:03:52;4.47;;;1.60;;
74227;SDS011;62587;52.352;5.006;2022-09-09T08:06:20;6.22;;;1.77;;
74227;SDS011;62587;52.352;5.006;2022-09-09T08:08:49;6.55;;;1.80;;
74227;SDS011;62587;52.352;5.006;2022-09-09T08:11:15;6.22;;;1.75;;
74227;SDS011;62587;52.352;5.006;2022-09-09T08:13:41;7.22;;;1.63;;
74227;SDS011;62587;52.352;5.006;2022-09-09T08:16:09;5.40;;;1.50;;
74227;SDS011;62587;52.352;5.006;2022-09-09T08:18:37;5.75;;;1.50;;
74227;SDS011;62587;52.352;5.006;2022-09-09T08:23:37;4.15;;;1.30;;
74227;SDS011;62587;52.352;5.006;2022-09-09T08:26:10;3.80;;;1.45;;
74227;SDS011;62587;52.352;5.006;2022-09-09T08:28:38;6.30;;;1.80;;
74227;SDS011;62587;52.352;5.006;2022-09-09T08:31:09;7.80;;;1.60;;
74227;SDS011;62587;52.352;5.006;2022-09-09T08:33:34;6.25;;;1.52;;
74227;SDS011;62587;52.352;5.006;2022-09-09T08:36:02;4.65;;;1.42;;
74227;SDS011;62587;52.352;5.006;2022-09-09T08:38:28;3.90;;;1.50;;
74227;SDS011;62587;52.352;5.006;2022-09-09T08:40:53;4.97;;;1.77;;
74227;SDS011;62587;52.352;5.006;2022-09-09T08:43:35;4.90;;;1.27;;
74227;SDS011;62587;52.352;5.006;2022-09-09T08:46:44;5.88;;;1.60;;
74227;SDS011;62587;52.352;5.006;2022-09-09T08:48:59;5.82;;;1.65;;
74227;SDS011;62587;52.352;5.006;2022-09-09T08:53:55;4.97;;;1.60;;
74227;SDS011;62587;52.352;5.006;2022-09-09T08:58:51;3.15;;;1.35;;
74227;SDS011;62587;52.352;5.006;2022-09-09T09:12:31;3.60;;;1.50;;
74227;SDS011;62587;52.352;5.006;2022-09-09T09:15:01;2.90;;;1.50;;
74227;SDS011;62587;52.352;5.006;2022-09-09T09:17:33;4.03;;;1.67;;
74227;SDS011;62587;52.352;5.006;2022-09-09T09:20:02;3.92;;;1.73;;
74227;SDS011;62587;52.352;5.006;2022-09-09T09:25:32;2.97;;;1.70;;
74227;SDS011;62587;52.352;5.006;2022-09-09T09:28:35;3.38;;;1.55;;
74227;SDS011;62587;52.352;5.006;2022-09-09T09:31:04;3.55;;;1.58;;
74227;SDS011;62587;52.352;5.006;2022-09-09T09:33:38;3.75;;;1.75;;
74227;SDS011;62587;52.352;5.006;2022-09-09T09:36:16;2.92;;;1.58;;
74227;SDS011;62587;52.352;5.006;2022-09-09T09:38:55;3.55;;;1.48;;
74227;SDS011;62587;52.352;5.006;2022-09-09T09:44:00;4.50;;;1.90;;
74227;SDS011;62587;52.352;5.006;2022-09-09T09:46:26;3.38;;;1.60;;
74227;SDS011;62587;52.352;5.006;2022-09-09T09:49:02;3.85;;;2.08;;
74227;SDS011;62587;52.352;5.006;2022-09-09T09:51:31;3.40;;;1.67;;
74227;SDS011;62587;52.352;5.006;2022-09-09T09:56:38;3.22;;;1.73;;
74227;SDS011;62587;52.352;5.006;2022-09-09T09:59:05;3.58;;;1.70;;
74227;SDS011;62587;52.352;5.006;2022-09-09T10:01:31;3.65;;;1.42;;
74227;SDS011;62587;52.352;5.006;2022-09-09T10:03:59;8.48;;;1.83;;
74227;SDS011;62587;52.352;5.006;2022-09-09T10:06:34;4.47;;;1.63;;
74227;SDS011;62587;52.352;5.006;2022-09-09T10:09:02;4.50;;;1.90;;
74227;SDS011;62587;52.352;5.006;2022-09-09T10:17:31;4.20;;;1.73;;
74227;SDS011;62587;52.352;5.006;2022-09-09T10:28:54;2.95;;;1.60;;
74227;SDS011;62587;52.352;5.006;2022-09-09T10:32:05;4.50;;;1.45;;
74227;SDS011;62587;52.352;5.006;2022-09-09T10:34:42;4.05;;;1.38;;
74227;SDS011;62587;52.352;5.006;2022-09-09T10:37:20;4.50;;;1.55;;
74227;SDS011;62587;52.352;5.006;2022-09-09T10:45:50;4.93;;;1.60;;
74227;SDS011;62587;52.352;5.006;2022-09-09T10:53:44;3.50;;;1.60;;
74227;SDS011;62587;52.352;5.006;2022-09-09T10:56:18;5.47;;;1.42;;
74227;SDS011;62587;52.352;5.006;2022-09-09T10:58:51;3.78;;;1.70;;
74227;SDS011;62587;52.352;5.006;2022-09-09T11:07:09;3.28;;;1.83;;
74227;SDS011;62587;52.352;5.006;2022-09-09T11:09:39;2.40;;;1.40;;
74227;SDS011;62587;52.352;5.006;2022-09-09T11:12:15;3.70;;;1.60;;
74227;SDS011;62587;52.352;5.006;2022-09-09T11:17:23;3.15;;;1.50;;
74227;SDS011;62587;52.352;5.006;2022-09-09T11:19:55;8.35;;;1.50;;
74227;SDS011;62587;52.352;5.006;2022-09-09T11:27:24;4.88;;;2.05;;
74227;SDS011;62587;52.352;5.006;2022-09-09T11:30:02;7.55;;;1.70;;
74227;SDS011;62587;52.352;5.006;2022-09-09T11:40:55;4.30;;;1.48;;
74227;SDS011;62587;52.352;5.006;2022-09-09T11:43:27;3.50;;;1.80;;
74227;SDS011;62587;52.352;5.006;2022-09-09T11:45:58;4.18;;;1.70;;
74227;SDS011;62587;52.352;5.006;2022-09-09T11:51:30;3.08;;;1.55;;
74227;SDS011;62587;52.352;5.006;2022-09-09T11:53:58;3.05;;;1.48;;
74227;SDS011;62587;52.352;5.006;2022-09-09T11:56:30;1.85;;;1.27;;
74227;SDS011;62587;52.352;5.006;2022-09-09T12:01:59;4.70;;;1.55;;
74227;SDS011;62587;52.352;5.006;2022-09-09T12:05:09;2.75;;;1.23;;
74227;SDS011;62587;52.352;5.006;2022-09-09T12:17:37;3.92;;;1.45;;
74227;SDS011;62587;52.352;5.006;2022-09-09T12:20:14;3.92;;;1.38;;
74227;SDS011;62587;52.352;5.006;2022-09-09T12:39:58;4.82;;;1.90;;
74227;SDS011;62587;52.352;5.006;2022-09-09T12:42:27;4.05;;;2.00;;
74227;SDS011;62587;52.352;5.006;2022-09-09T12:44:54;3.15;;;1.88;;
74227;SDS011;62587;52.352;5.006;2022-09-09T12:47:25;4.10;;;2.03;;
74227;SDS011;62587;52.352;5.006;2022-09-09T12:50:00;4.80;;;2.85;;
74227;SDS011;62587;52.352;5.006;2022-09-09T12:52:30;6.22;;;2.15;;
74227;SDS011;62587;52.352;5.006;2022-09-09T12:55:01;4.18;;;1.95;;
74227;SDS011;62587;52.352;5.006;2022-09-09T13:00:10;3.75;;;2.10;;
74227;SDS011;62587;52.352;5.006;2022-09-09T13:02:47;4.53;;;2.50;;
74227;SDS011;62587;52.352;5.006;2022-09-09T13:05:16;4.68;;;2.38;;
74227;SDS011;62587;52.352;5.006;2022-09-09T13:07:45;4.57;;;2.20;;
74227;SDS011;62587;52.352;5.006;2022-09-09T13:10:11;4.10;;;1.98;;
74227;SDS011;62587;52.352;5.006;2022-09-09T13:12:37;4.07;;;2.38;;
74227;SDS011;62587;52.352;5.006;2022-09-09T13:15:03;3.05;;;2.20;;
74227;SDS011;62587;52.352;5.006;2022-09-09T13:17:29;7.10;;;3.78;;
74227;SDS011;62587;52.352;5.006;2022-09-09T13:19:54;4.32;;;2.95;;
74227;SDS011;62587;52.352;5.006;2022-09-09T13:22:28;5.10;;;3.25;;
74227;SDS011;62587;52.352;5.006;2022-09-09T13:27:31;5.72;;;4.13;;
74227;SDS011;62587;52.352;5.006;2022-09-09T13:30:23;5.68;;;3.60;;
74227;SDS011;62587;52.352;5.006;2022-09-09T13:35:54;3.33;;;2.42;;
74227;SDS011;62587;52.352;5.006;2022-09-09T13:38:21;6.85;;;3.90;;
74227;SDS011;62587;52.352;5.006;2022-09-09T13:43:20;4.78;;;2.78;;
74227;SDS011;62587;52.352;5.006;2022-09-09T13:46:00;4.25;;;2.38;;
74227;SDS011;62587;52.352;5.006;2022-09-09T13:48:29;4.22;;;2.78;;
74227;SDS011;62587;52.352;5.006;2022-09-09T13:51:00;4.50;;;2.58;;
74227;SDS011;62587;52.352;5.006;2022-09-09T13:53:29;4.88;;;3.38;;
74227;SDS011;62587;52.352;5.006;2022-09-09T13:55:55;5.57;;;3.15;;
74227;SDS011;62587;52.352;5.006;2022-09-09T13:58:21;3.92;;;2.45;;
74227;SDS011;62587;52.352;5.006;2022-09-09T14:00:48;4.28;;;2.55;;
74227;SDS011;62587;52.352;5.006;2022-09-09T14:03:15;3.97;;;2.35;;
74227;SDS011;62587;52.352;5.006;2022-09-09T14:05:40;4.97;;;2.90;;
74227;SDS011;62587;52.352;5.006;2022-09-09T14:08:07;5.65;;;2.75;;
74227;SDS011;62587;52.352;5.006;2022-09-09T14:10:40;4.40;;;2.20;;
74227;SDS011;62587;52.352;5.006;2022-09-09T14:13:05;4.03;;;2.47;;
74227;SDS011;62587;52.352;5.006;2022-09-09T14:15:31;4.47;;;2.50;;
74227;SDS011;62587;52.352;5.006;2022-09-09T14:17:56;4.40;;;2.50;;
74227;SDS011;62587;52.352;5.006;2022-09-09T14:20:24;3.65;;;2.28;;
74227;SDS011;62587;52.352;5.006;2022-09-09T14:22:49;3.70;;;2.30;;
74227;SDS011;62587;52.352;5.006;2022-09-09T14:25:14;5.43;;;3.37;;
74227;SDS011;62587;52.352;5.006;2022-09-09T14:27:40;4.45;;;2.92;;
74227;SDS011;62587;52.352;5.006;2022-09-09T14:30:05;4.38;;;2.40;;
74227;SDS011;62587;52.352;5.006;2022-09-09T14:32:32;6.97;;;2.88;;
74227;SDS011;62587;52.352;5.006;2022-09-09T14:34:58;3.90;;;2.50;;
74227;SDS011;62587;52.352;5.006;2022-09-09T14:37:23;3.47;;;2.30;;
74227;SDS011;62587;52.352;5.006;2022-09-09T14:39:49;4.78;;;2.20;;
74227;SDS011;62587;52.352;5.006;2022-09-09T14:42:15;5.68;;;2.47;;
74227;SDS011;62587;52.352;5.006;2022-09-09T14:44:41;4.50;;;2.00;;
74227;SDS011;62587;52.352;5.006;2022-09-09T14:47:07;4.60;;;1.92;;
74227;SDS011;62587;52.352;5.006;2022-09-09T14:49:34;5.22;;;3.65;;
74227;SDS011;62587;52.352;5.006;2022-09-09T14:51:59;5.95;;;3.60;;
74227;SDS011;62587;52.352;5.006;2022-09-09T14:54:25;6.03;;;3.70;;
74227;SDS011;62587;52.352;5.006;2022-09-09T14:56:50;4.40;;;2.80;;
74227;SDS011;62587;52.352;5.006;2022-09-09T14:59:15;3.95;;;2.03;;
74227;SDS011;62587;52.352;5.006;2022-09-09T15:01:41;4.82;;;2.53;;
74227;SDS011;62587;52.352;5.006;2022-09-09T15:04:06;4.07;;;2.33;;
74227;SDS011;62587;52.352;5.006;2022-09-09T15:06:33;4.85;;;2.47;;
74227;SDS011;62587;52.352;5.006;2022-09-09T15:09:00;6.13;;;2.70;;
74227;SDS011;62587;52.352;5.006;2022-09-09T15:11:26;4.32;;;1.92;;
74227;SDS011;62587;52.352;5.006;2022-09-09T15:13:53;3.90;;;1.60;;
74227;SDS011;62587;52.352;5.006;2022-09-09T15:16:19;3.33;;;1.60;;
74227;SDS011;62587;52.352;5.006;2022-09-09T15:18:45;2.00;;;1.20;;
74227;SDS011;62587;52.352;5.006;2022-09-09T15:21:12;2.95;;;1.48;;
74227;SDS011;62587;52.352;5.006;2022-09-09T15:23:39;2.83;;;1.95;;
74227;SDS011;62587;52.352;5.006;2022-09-09T15:26:05;3.47;;;1.48;;
74227;SDS011;62587;52.352;5.006;2022-09-09T15:28:32;3.33;;;1.05;;
74227;SDS011;62587;52.352;5.006;2022-09-09T15:31:06;3.13;;;1.30;;
74227;SDS011;62587;52.352;5.006;2022-09-09T15:33:34;3.25;;;1.20;;
74227;SDS011;62587;52.352;5.006;2022-09-09T15:36:12;2.60;;;1.25;;
74227;SDS011;62587;52.352;5.006;2022-09-09T15:38:45;3.45;;;1.75;;
74227;SDS011;62587;52.352;5.006;2022-09-09T15:41:11;4.57;;;1.60;;
74227;SDS011;62587;52.352;5.006;2022-09-09T15:43:37;3.00;;;1.83;;
74227;SDS011;62587;52.352;5.006;2022-09-09T15:46:08;4.68;;;2.80;;
74227;SDS011;62587;52.352;5.006;2022-09-09T15:48:44;4.70;;;3.00;;
74227;SDS011;62587;52.352;5.006;2022-09-09T15:51:10;2.85;;;1.65;;
74227;SDS011;62587;52.352;5.006;2022-09-09T15:53:39;2.55;;;1.50;;
74227;SDS011;62587;52.352;5.006;2022-09-09T15:56:07;7.13;;;4.90;;
74227;SDS011;62587;52.352;5.006;2022-09-09T15:58:34;4.35;;;3.30;;
74227;SDS011;62587;52.352;5.006;2022-09-09T16:01:01;4.57;;;2.78;;
74227;SDS011;62587;52.352;5.006;2022-09-09T16:03:29;5.53;;;2.80;;
74227;SDS011;62587;52.352;5.006;2022-09-09T16:05:58;19.70;;;14.13;;
74227;SDS011;62587;52.352;5.006;2022-09-09T16:08:23;11.63;;;8.75;;
74227;SDS011;62587;52.352;5.006;2022-09-09T16:10:49;7.93;;;4.93;;
74227;SDS011;62587;52.352;5.006;2022-09-09T16:13:15;6.13;;;3.70;;
74227;SDS011;62587;52.352;5.006;2022-09-09T16:15:40;5.80;;;3.60;;
74227;SDS011;62587;52.352;5.006;2022-09-09T16:18:06;6.00;;;4.07;;
74227;SDS011;62587;52.352;5.006;2022-09-09T16:20:31;6.07;;;4.63;;
74227;SDS011;62587;52.352;5.006;2022-09-09T16:22:56;6.23;;;3.50;;
74227;SDS011;62587;52.352;5.006;2022-09-09T16:25:22;5.15;;;3.45;;
74227;SDS011;62587;52.352;5.006;2022-09-09T16:27:47;4.00;;;2.97;;
74227;SDS011;62587;52.352;5.006;2022-09-09T16:30:12;4.28;;;2.80;;
74227;SDS011;62587;52.352;5.006;2022-09-09T16:32:38;6.72;;;3.58;;
74227;SDS011;62587;52.352;5.006;2022-09-09T16:35:03;5.25;;;2.88;;
74227;SDS011;62587;52.352;5.006;2022-09-09T16:37:29;5.25;;;2.83;;
74227;SDS011;62587;52.352;5.006;2022-09-09T16:39:55;3.85;;;2.42;;
74227;SDS011;62587;52.352;5.006;2022-09-09T16:42:20;4.95;;;2.67;;
74227;SDS011;62587;52.352;5.006;2022-09-09T16:44:45;4.50;;;2.27;;
74227;SDS011;62587;52.352;5.006;2022-09-09T16:47:11;3.73;;;2.23;;
74227;SDS011;62587;52.352;5.006;2022-09-09T16:49:36;3.50;;;2.30;;
74227;SDS011;62587;52.352;5.006;2022-09-09T16:52:06;4.97;;;2.30;;
74227;SDS011;62587;52.352;5.006;2022-09-09T16:54:31;5.03;;;2.17;;
74227;SDS011;62587;52.352;5.006;2022-09-09T16:56:56;4.37;;;2.00;;
74227;SDS011;62587;52.352;5.006;2022-09-09T16:59:22;4.95;;;2.00;;
74227;SDS011;62587;52.352;5.006;2022-09-09T17:01:49;6.40;;;1.70;;
74227;SDS011;62587;52.352;5.006;2022-09-09T17:04:19;4.53;;;1.48;;
74227;SDS011;62587;52.352;5.006;2022-09-09T17:06:51;2.72;;;1.48;;
74227;SDS011;62587;52.352;5.006;2022-09-09T17:09:18;4.03;;;1.95;;
74227;SDS011;62587;52.352;5.006;2022-09-09T17:11:45;3.58;;;1.40;;
74227;SDS011;62587;52.352;5.006;2022-09-09T17:14:14;2.50;;;1.40;;
74227;SDS011;62587;52.352;5.006;2022-09-09T17:16:41;2.58;;;1.30;;
74227;SDS011;62587;52.352;5.006;2022-09-09T17:19:06;4.65;;;1.80;;
74227;SDS011;62587;52.352;5.006;2022-09-09T17:21:33;4.20;;;1.60;;
74227;SDS011;62587;52.352;5.006;2022-09-09T17:23:59;3.50;;;1.40;;
74227;SDS011;62587;52.352;5.006;2022-09-09T17:26:26;3.35;;;1.35;;
74227;SDS011;62587;52.352;5.006;2022-09-09T17:28:54;3.78;;;1.25;;
74227;SDS011;62587;52.352;5.006;2022-09-09T17:31:21;6.07;;;1.58;;
74227;SDS011;62587;52.352;5.006;2022-09-09T17:33:47;4.45;;;1.60;;